createdAt,value
2023-03-16T00:00:45.483Z,565.6
2023-03-16T00:01:48.046Z,565.2
2023-03-16T00:02:50.619Z,565.4
2023-03-16T00:03:53.154Z,565.3
2023-03-16T00:04:55.141Z,565.5
2023-03-16T00:05:57.706Z,565.9
2023-03-16T00:07:00.298Z,565.8
2023-03-16T00:08:02.237Z,565.9
2023-03-16T00:09:04.483Z,566
2023-03-16T00:10:06.441Z,565.8
2023-03-16T00:11:09.069Z,566.1
2023-03-16T00:12:11.588Z,566
2023-03-16T00:13:13.795Z,566.2
2023-03-16T00:14:16.376Z,566.5
2023-03-16T00:15:18.348Z,566.3
2023-03-16T00:16:21.183Z,566.9
2023-03-16T00:17:23.440Z,567.1
2023-03-16T00:18:25.922Z,567
2023-03-16T00:19:28.234Z,567.1
2023-03-16T00:20:31.257Z,567.3
2023-03-16T00:21:33.203Z,566.9
2023-03-16T00:22:35.440Z,566.8
2023-03-16T00:23:37.725Z,566.2
2023-03-16T00:24:39.963Z,566.2
2023-03-16T00:25:42.206Z,566.1
2023-03-16T00:26:44.800Z,566.2
2023-03-16T00:27:47.307Z,565.8
2023-03-16T00:28:49.258Z,566
2023-03-16T00:29:51.234Z,566.2
2023-03-16T00:30:53.773Z,566.3
2023-03-16T00:31:56.251Z,566.3
2023-03-16T00:32:58.492Z,566.5
2023-03-16T00:34:01.014Z,566.7
2023-03-16T00:35:03.539Z,566.9
2023-03-16T00:36:06.021Z,566.9
2023-03-16T00:37:08.658Z,567
2023-03-16T00:38:10.956Z,567
2023-03-16T00:39:13.478Z,567.3
2023-03-16T00:40:16.105Z,566.9
2023-03-16T00:41:18.645Z,567
2023-03-16T00:42:21.013Z,567
2023-03-16T00:43:23.225Z,566.9
2023-03-16T00:44:25.478Z,567.2
2023-03-16T00:45:27.697Z,567.2
2023-03-16T00:46:29.655Z,566.9
2023-03-16T00:47:32.222Z,567.1
2023-03-16T00:48:34.714Z,566.9
2023-03-16T00:49:37.212Z,567
2023-03-16T00:50:39.749Z,566.7
2023-03-16T00:51:41.711Z,566.5
2023-03-16T00:52:44.239Z,566.8
2023-03-16T00:53:46.574Z,566.7
2023-03-16T00:54:49.117Z,566.8
2023-03-16T00:55:51.643Z,566.7
2023-03-16T00:56:54.136Z,566.6
2023-03-16T00:57:56.731Z,566.7
2023-03-16T00:58:59.488Z,566.9
2023-03-16T01:00:02.103Z,567.1
2023-03-16T01:01:04.624Z,567.4
2023-03-16T01:02:06.590Z,567.8
2023-03-16T01:03:09.554Z,568.1
2023-03-16T01:04:12.034Z,567.7
2023-03-16T01:05:14.552Z,568
2023-03-16T01:06:17.228Z,568.1
2023-03-16T01:07:19.270Z,568.2
2023-03-16T01:08:21.504Z,567.9
2023-03-16T01:09:23.722Z,567.8
2023-03-16T01:10:27.304Z,568
2023-03-16T01:11:29.959Z,568.1
2023-03-16T01:12:31.588Z,568.4
2023-03-16T01:13:34.195Z,568.3
2023-03-16T01:14:36.497Z,568.4
2023-03-16T01:15:38.719Z,567.9
2023-03-16T01:16:41.202Z,567.5
2023-03-16T01:17:43.520Z,567.7
2023-03-16T01:18:46.056Z,567.3
2023-03-16T01:19:48.536Z,568
2023-03-16T01:20:50.476Z,567.6
2023-03-16T01:21:52.680Z,567.7
2023-03-16T01:22:55.200Z,567.6
2023-03-16T01:23:57.396Z,567.8
2023-03-16T01:24:59.398Z,567.6
2023-03-16T01:26:01.721Z,567.7
2023-03-16T01:27:04.282Z,567.9
2023-03-16T01:28:06.491Z,567.8
2023-03-16T01:29:08.848Z,568.2
2023-03-16T01:30:11.078Z,567.7
2023-03-16T01:31:13.697Z,567.6
2023-03-16T01:32:15.705Z,567.5
2023-03-16T01:33:18.217Z,567.7
2023-03-16T01:34:20.758Z,567.8
2023-03-16T01:35:23.120Z,567.6
2023-03-16T01:36:25.650Z,567.6
2023-03-16T01:37:27.872Z,568
2023-03-16T01:38:29.808Z,568.3
2023-03-16T01:39:32.302Z,568.5
2023-03-16T01:40:34.808Z,568.5
2023-03-16T01:41:37.035Z,568.3
2023-03-16T01:42:39.294Z,568.3
2023-03-16T01:43:41.815Z,568.5
2023-03-16T01:44:44.401Z,568.4
2023-03-16T01:45:46.833Z,568.6
2023-03-16T01:46:49.361Z,568.9
2023-03-16T01:47:51.853Z,569
2023-03-16T01:48:54.346Z,568.9
2023-03-16T01:49:56.331Z,568.7
2023-03-16T01:50:58.552Z,568.8
2023-03-16T01:52:01.126Z,569.2
2023-03-16T01:53:03.342Z,569
2023-03-16T01:54:05.268Z,569.2
2023-03-16T01:55:07.525Z,569.5
2023-03-16T01:56:09.490Z,569.5
2023-03-16T01:57:12.019Z,569.5
2023-03-16T01:58:14.236Z,569.4
2023-03-16T01:59:16.729Z,569.3
2023-03-16T02:00:19.360Z,569.5
2023-03-16T02:01:22.148Z,569.2
2023-03-16T02:02:24.657Z,569.3
2023-03-16T02:03:27.203Z,569.3
2023-03-16T02:04:30.814Z,569.6
2023-03-16T02:05:33.182Z,569.4
2023-03-16T02:06:35.693Z,569.5
2023-03-16T02:07:38.176Z,569.4
2023-03-16T02:08:40.755Z,569.5
2023-03-16T02:09:43.333Z,569.6
2023-03-16T02:10:45.544Z,569.7
2023-03-16T02:11:47.496Z,569.9
2023-03-16T02:12:50.000Z,569.8
2023-03-16T02:13:52.560Z,570
2023-03-16T02:14:54.814Z,569.9
2023-03-16T02:15:57.783Z,569.7
2023-03-16T02:17:00.281Z,569.5
2023-03-16T02:18:02.829Z,569.7
2023-03-16T02:19:05.326Z,569.2
2023-03-16T02:20:07.278Z,569.3
2023-03-16T02:21:09.823Z,569.1
2023-03-16T02:22:12.319Z,569
2023-03-16T02:23:14.523Z,569.3
2023-03-16T02:24:16.747Z,569
2023-03-16T02:25:18.940Z,569.3
2023-03-16T02:26:21.444Z,569.3
2023-03-16T02:27:23.160Z,569.1
2023-03-16T02:28:25.658Z,569.2
2023-03-16T02:29:27.606Z,569.8
2023-03-16T02:30:31.575Z,569.9
2023-03-16T02:31:34.694Z,569.5
2023-03-16T02:32:36.941Z,569.7
2023-03-16T02:33:39.479Z,569.7
2023-03-16T02:34:41.669Z,569.4
2023-03-16T02:35:44.436Z,569.6
2023-03-16T02:36:46.692Z,569.4
2023-03-16T02:37:49.202Z,569.5
2023-03-16T02:38:50.854Z,569.4
2023-03-16T02:39:53.064Z,569.9
2023-03-16T02:40:55.302Z,569.8
2023-03-16T02:41:57.865Z,569.4
2023-03-16T02:42:59.528Z,569.2
2023-03-16T02:44:01.762Z,569.4
2023-03-16T02:45:04.411Z,569.7
2023-03-16T02:46:07.483Z,569.4
2023-03-16T02:47:09.801Z,569.8
2023-03-16T02:48:12.023Z,569.7
2023-03-16T02:49:14.516Z,569.7
2023-03-16T02:50:16.524Z,569.4
2023-03-16T02:51:18.744Z,569.9
2023-03-16T02:52:20.981Z,569.7
2023-03-16T02:53:23.500Z,569.8
2023-03-16T02:54:26.006Z,570.1
2023-03-16T02:55:28.508Z,569.9
2023-03-16T02:56:30.474Z,570.2
2023-03-16T02:57:33.035Z,569.7
2023-03-16T02:58:35.638Z,569.9
2023-03-16T02:59:38.129Z,570
2023-03-16T03:00:40.436Z,569.6
2023-03-16T03:01:42.965Z,569.9
2023-03-16T03:02:45.854Z,570.1
2023-03-16T03:03:48.379Z,569.9
2023-03-16T03:04:50.586Z,570.2
2023-03-16T03:05:52.851Z,570.3
2023-03-16T03:06:55.118Z,570.4
2023-03-16T03:07:57.629Z,570.3
2023-03-16T03:09:00.144Z,570.3
2023-03-16T03:10:02.381Z,570.6
2023-03-16T03:11:04.582Z,570.4
2023-03-16T03:12:06.944Z,570.5
2023-03-16T03:13:09.195Z,570.7
2023-03-16T03:14:11.428Z,570.4
2023-03-16T03:15:13.940Z,570.3
2023-03-16T03:16:16.983Z,570.9
2023-03-16T03:17:19.223Z,571.1
2023-03-16T03:18:21.546Z,570.8
2023-03-16T03:19:23.527Z,570.9
2023-03-16T03:20:25.803Z,570.7
2023-03-16T03:21:28.066Z,571
2023-03-16T03:22:30.568Z,570.7
2023-03-16T03:23:33.062Z,571
2023-03-16T03:24:35.589Z,570.8
2023-03-16T03:25:38.110Z,571.2
2023-03-16T03:26:40.670Z,570.9
2023-03-16T03:27:42.918Z,571.2
2023-03-16T03:28:45.434Z,571
2023-03-16T03:29:47.372Z,571.1
2023-03-16T03:30:49.573Z,571.2
2023-03-16T03:31:52.436Z,571.4
2023-03-16T03:32:55.090Z,571.4
2023-03-16T03:33:57.840Z,571.3
2023-03-16T03:35:00.387Z,571
2023-03-16T03:36:03.328Z,570.8
2023-03-16T03:37:05.310Z,571
2023-03-16T03:38:07.831Z,570.7
2023-03-16T03:39:10.387Z,570.8
2023-03-16T03:40:12.632Z,571.1
2023-03-16T03:41:15.155Z,571.1
2023-03-16T03:42:17.654Z,570.7
2023-03-16T03:43:20.170Z,570.5
2023-03-16T03:44:22.111Z,570.3
2023-03-16T03:45:24.623Z,570.4
2023-03-16T03:46:27.626Z,570.7
2023-03-16T03:47:29.944Z,570.5
2023-03-16T03:48:31.658Z,570.6
2023-03-16T03:49:34.266Z,571.1
2023-03-16T03:50:36.749Z,571.1
2023-03-16T03:51:38.980Z,571
2023-03-16T03:52:40.958Z,571.1
2023-03-16T03:53:43.205Z,571.1
2023-03-16T03:54:45.706Z,571.3
2023-03-16T03:55:48.216Z,571.5
2023-03-16T03:56:50.701Z,571
2023-03-16T03:57:52.937Z,571.3
2023-03-16T03:58:55.456Z,571.1
2023-03-16T03:59:58.010Z,571.2
2023-03-16T04:01:00.257Z,571
2023-03-16T04:02:03.349Z,571.3
2023-03-16T04:03:06.921Z,571.3
2023-03-16T04:04:09.523Z,571.5
2023-03-16T04:05:11.843Z,571.7
2023-03-16T04:06:14.110Z,572
2023-03-16T04:07:16.620Z,572.4
2023-03-16T04:08:18.565Z,572.3
2023-03-16T04:09:21.065Z,572.2
2023-03-16T04:10:23.552Z,572.1
2023-03-16T04:11:25.788Z,572
2023-03-16T04:12:28.012Z,571.9
2023-03-16T04:13:30.232Z,572.2
2023-03-16T04:14:32.754Z,572.3
2023-03-16T04:15:35.086Z,571.8
2023-03-16T04:16:38.041Z,571.7
2023-03-16T04:17:40.332Z,571.9
2023-03-16T04:18:42.569Z,572
2023-03-16T04:19:45.078Z,572.1
2023-03-16T04:20:47.708Z,571.8
2023-03-16T04:21:49.922Z,572
2023-03-16T04:22:52.618Z,571.6
2023-03-16T04:23:54.624Z,571.4
2023-03-16T04:24:56.653Z,571
2023-03-16T04:25:58.923Z,571.3
2023-03-16T04:27:00.916Z,571.1
2023-03-16T04:28:03.412Z,571.2
2023-03-16T04:29:05.349Z,570.9
2023-03-16T04:30:07.962Z,570.8
2023-03-16T04:31:10.217Z,570.3
2023-03-16T04:32:12.719Z,570.4
2023-03-16T04:33:15.354Z,570.1
2023-03-16T04:34:17.958Z,570.2
2023-03-16T04:35:20.586Z,569.8
2023-03-16T04:36:23.186Z,570.3
2023-03-16T04:37:25.537Z,570.2
2023-03-16T04:38:28.044Z,570.4
2023-03-16T04:39:30.247Z,570.6
2023-03-16T04:40:32.503Z,571
2023-03-16T04:41:34.739Z,571
2023-03-16T04:42:37.279Z,571.3
2023-03-16T04:43:39.274Z,571.1
2023-03-16T04:44:41.504Z,571.3
2023-03-16T04:45:43.757Z,571.6
2023-03-16T04:46:46.493Z,571.7
2023-03-16T04:47:48.978Z,571.4
2023-03-16T04:48:51.483Z,571.9
2023-03-16T04:49:54.006Z,572
2023-03-16T04:50:55.960Z,572.6
2023-03-16T04:51:58.561Z,572.4
2023-03-16T04:53:01.090Z,572.4
2023-03-16T04:54:03.082Z,572.6
2023-03-16T04:55:05.366Z,572.4
2023-03-16T04:56:07.620Z,572.4
2023-03-16T04:57:10.153Z,572.3
2023-03-16T04:58:12.386Z,572.2
2023-03-16T04:59:14.883Z,572.1
2023-03-16T05:00:17.409Z,571.8
2023-03-16T05:01:20.285Z,571.9
2023-03-16T05:02:22.826Z,572.1
2023-03-16T05:03:25.062Z,572.6
2023-03-16T05:04:27.318Z,572.1
2023-03-16T05:05:30.115Z,572.6
2023-03-16T05:06:31.820Z,572.9
2023-03-16T05:07:34.522Z,572.8
2023-03-16T05:08:37.160Z,573.8
2023-03-16T05:09:39.715Z,573.7
2023-03-16T05:10:42.223Z,573.9
2023-03-16T05:11:44.746Z,574.1
2023-03-16T05:12:47.258Z,574.5
2023-03-16T05:13:49.483Z,574.4
2023-03-16T05:14:51.702Z,574
2023-03-16T05:15:54.178Z,574.1
2023-03-16T05:16:56.458Z,574.9
2023-03-16T05:17:58.677Z,574.6
2023-03-16T05:19:00.667Z,574.7
2023-03-16T05:20:03.189Z,574.6
2023-03-16T05:21:05.710Z,575
2023-03-16T05:22:07.929Z,574.4
2023-03-16T05:23:10.301Z,574.9
2023-03-16T05:24:12.536Z,574.7
2023-03-16T05:25:14.765Z,575
2023-03-16T05:26:17.362Z,574.7
2023-03-16T05:27:19.859Z,574.8
2023-03-16T05:28:22.068Z,574.3
2023-03-16T05:29:24.377Z,574.4
2023-03-16T05:30:27.752Z,574.4
2023-03-16T05:31:30.367Z,574.8
2023-03-16T05:32:32.692Z,574.2
2023-03-16T05:33:34.960Z,574.6
2023-03-16T05:34:37.477Z,574.7
2023-03-16T05:35:39.955Z,573.9
2023-03-16T05:36:41.960Z,574.3
2023-03-16T05:37:44.815Z,574.2
2023-03-16T05:38:47.391Z,574.4
2023-03-16T05:39:49.888Z,574.6
2023-03-16T05:40:52.387Z,573.9
2023-03-16T05:41:54.341Z,574.3
2023-03-16T05:42:56.575Z,574
2023-03-16T05:43:59.089Z,574.8
2023-03-16T05:45:01.100Z,574.9
2023-03-16T05:46:03.394Z,575.2
2023-03-16T05:47:06.400Z,575.1
2023-03-16T05:48:08.990Z,575
2023-03-16T05:49:11.220Z,574.9
2023-03-16T05:50:13.834Z,575.4
2023-03-16T05:51:16.048Z,575
2023-03-16T05:52:18.707Z,574.8
2023-03-16T05:53:20.998Z,575.1
2023-03-16T05:54:23.602Z,575.2
2023-03-16T05:55:26.123Z,574.8
2023-03-16T05:56:28.664Z,574.8
2023-03-16T05:57:30.918Z,574.3
2023-03-16T05:58:33.434Z,574.4
2023-03-16T05:59:36.039Z,574.2
2023-03-16T06:00:38.290Z,574.3
2023-03-16T06:01:40.780Z,573.9
2023-03-16T06:02:43.717Z,574.6
2023-03-16T06:03:45.962Z,574.7
2023-03-16T06:04:48.209Z,574.6
2023-03-16T06:05:50.130Z,575.1
2023-03-16T06:06:52.665Z,574.9
2023-03-16T06:07:55.229Z,575
2023-03-16T06:08:57.458Z,575.2
2023-03-16T06:10:00.076Z,574.9
2023-03-16T06:11:02.294Z,575
2023-03-16T06:12:04.818Z,574.8
2023-03-16T06:13:07.302Z,574.3
2023-03-16T06:14:09.860Z,574.1
2023-03-16T06:15:12.144Z,574
2023-03-16T06:16:15.121Z,573.8
2023-03-16T06:17:17.088Z,573.7
2023-03-16T06:18:19.034Z,573.7
2023-03-16T06:19:21.310Z,573.7
2023-03-16T06:20:23.855Z,573.6
2023-03-16T06:21:26.225Z,573.9
2023-03-16T06:22:28.724Z,574
2023-03-16T06:23:30.672Z,573.9
2023-03-16T06:24:32.895Z,574.2
2023-03-16T06:25:35.535Z,574
2023-03-16T06:26:37.809Z,573.7
2023-03-16T06:27:40.361Z,573.7
2023-03-16T06:28:42.967Z,573.7
2023-03-16T06:29:45.516Z,573.3
2023-03-16T06:30:48.062Z,573.3
2023-03-16T06:31:50.398Z,573.2
2023-03-16T06:32:53.106Z,573.3
2023-03-16T06:33:55.355Z,572.9
2023-03-16T06:34:57.620Z,572.8
2023-03-16T06:36:00.361Z,573
2023-03-16T06:37:02.909Z,572.8
2023-03-16T06:38:04.853Z,572.9
2023-03-16T06:39:07.142Z,572.7
2023-03-16T06:40:09.663Z,573.3
2023-03-16T06:41:12.375Z,573.1
2023-03-16T06:42:14.577Z,573.2
2023-03-16T06:43:17.081Z,573.5
2023-03-16T06:44:19.598Z,573.3
2023-03-16T06:45:22.147Z,573.3
2023-03-16T06:46:25.144Z,573.4
2023-03-16T06:47:27.731Z,573.4
2023-03-16T06:48:29.722Z,572.9
2023-03-16T06:49:32.274Z,573.7
2023-03-16T06:50:34.506Z,572.9
2023-03-16T06:51:36.758Z,573.3
2023-03-16T06:52:39.266Z,572.6
2023-03-16T06:53:41.518Z,573
2023-03-16T06:54:44.170Z,573.2
2023-03-16T06:55:46.688Z,573.4
2023-03-16T06:56:49.304Z,573.6
2023-03-16T06:57:51.842Z,573.6
2023-03-16T06:58:54.080Z,573.4
2023-03-16T06:59:56.619Z,573
2023-03-16T07:00:59.094Z,572.7
2023-03-16T07:02:01.688Z,572.7
2023-03-16T07:03:04.312Z,572.6
2023-03-16T07:04:06.660Z,573.4
2023-03-16T07:05:09.180Z,573.3
2023-03-16T07:06:11.704Z,573.3
2023-03-16T07:07:13.641Z,573.7
2023-03-16T07:08:15.880Z,573.5
2023-03-16T07:09:18.157Z,573.8
2023-03-16T07:10:20.391Z,573.9
2023-03-16T07:11:22.633Z,573.9
2023-03-16T07:12:25.282Z,573.8
2023-03-16T07:13:27.813Z,573.6
2023-03-16T07:14:30.028Z,573.4
2023-03-16T07:15:32.276Z,574
2023-03-16T07:16:34.946Z,573.8
2023-03-16T07:17:37.196Z,574
2023-03-16T07:18:39.492Z,574.1
2023-03-16T07:19:42.043Z,573.6
2023-03-16T07:20:44.575Z,574
2023-03-16T07:21:46.889Z,573.8
2023-03-16T07:22:49.386Z,573.8
2023-03-16T07:23:51.895Z,573.6
2023-03-16T07:24:54.394Z,573.3
2023-03-16T07:25:56.750Z,573.4
2023-03-16T07:26:58.969Z,573.3
2023-03-16T07:28:01.616Z,573.6
2023-03-16T07:29:03.909Z,573.4
2023-03-16T07:30:06.443Z,573.7
2023-03-16T07:31:08.949Z,573.8
2023-03-16T07:32:11.261Z,573.8
2023-03-16T07:33:14.122Z,573.8
2023-03-16T07:34:16.538Z,573.4
2023-03-16T07:35:18.567Z,573.6
2023-03-16T07:36:21.411Z,573.1
2023-03-16T07:38:28.904Z,573
2023-03-16T07:39:31.396Z,572.8
2023-03-16T07:40:33.989Z,572.5
2023-03-16T07:41:36.313Z,572.7
2023-03-16T07:42:38.864Z,572.6
2023-03-16T07:43:41.460Z,572.8
2023-03-16T07:44:43.997Z,572.6
2023-03-16T07:45:46.415Z,572.1
2023-03-16T07:46:48.969Z,572.7
2023-03-16T07:47:51.477Z,572.3
2023-03-16T07:48:53.697Z,572.5
2023-03-16T07:49:55.685Z,572.5
2023-03-16T07:50:58.181Z,572.8
2023-03-16T07:52:00.681Z,572.5
2023-03-16T07:53:02.929Z,572.1
2023-03-16T07:54:05.276Z,572.2
2023-03-16T07:55:07.368Z,571.6
2023-03-16T07:56:09.903Z,571.6
2023-03-16T07:57:12.575Z,571.3
2023-03-16T07:58:14.835Z,571.4
2023-03-16T07:59:20.935Z,571.7
2023-03-16T08:00:23.497Z,571.8
2023-03-16T08:01:25.709Z,571.7
2023-03-16T08:02:28.385Z,571.3
2023-03-16T08:03:31.402Z,571.4
2023-03-16T08:04:33.687Z,571.4
2023-03-16T08:05:35.718Z,571.3
2023-03-16T08:06:37.946Z,571.3
2023-03-16T08:07:40.498Z,571.4
2023-03-16T08:08:43.040Z,571.6
2023-03-16T08:09:45.052Z,571
2023-03-16T08:10:47.286Z,571.3
2023-03-16T08:11:49.812Z,571.4
2023-03-16T08:12:52.336Z,571.7
2023-03-16T08:13:54.886Z,570.9
2023-03-16T08:14:57.556Z,571.2
2023-03-16T08:16:00.387Z,570.7
2023-03-16T08:17:02.990Z,570.7
2023-03-16T08:18:05.527Z,570.7
2023-03-16T08:19:07.869Z,570.8
2023-03-16T08:20:09.825Z,571
2023-03-16T08:21:11.488Z,570.7
2023-03-16T08:22:13.197Z,570.2
2023-03-16T08:23:14.888Z,570.3
2023-03-16T08:24:17.409Z,570.2
2023-03-16T08:25:20.058Z,570.5
2023-03-16T08:26:22.074Z,570.1
2023-03-16T08:27:24.346Z,569.5
2023-03-16T08:28:27.253Z,569.8
2023-03-16T08:29:29.224Z,569.9
2023-03-16T08:30:33.675Z,569.8
2023-03-16T08:31:35.913Z,569.5
2023-03-16T08:32:38.615Z,569.6
2023-03-16T08:33:41.167Z,569.7
2023-03-16T08:34:43.099Z,569.5
2023-03-16T08:35:45.926Z,569.7
2023-03-16T08:36:48.219Z,570.1
2023-03-16T08:37:50.757Z,569.9
2023-03-16T08:39:57.993Z,570.4
2023-03-16T08:41:00.507Z,570.5
2023-03-16T08:42:03.046Z,570.2
2023-03-16T08:43:05.356Z,570.3
2023-03-16T08:44:07.611Z,570.6
2023-03-16T08:46:17.864Z,570.7
2023-03-16T08:47:20.175Z,570.6
2023-03-16T08:48:22.181Z,570.4
2023-03-16T08:49:24.209Z,570.4
2023-03-16T08:50:27.874Z,570.2
2023-03-16T08:51:30.643Z,570.5
2023-03-16T08:52:33.214Z,570.2
2023-03-16T08:53:35.445Z,569.9
2023-03-16T08:54:37.702Z,570.3
2023-03-16T08:55:39.958Z,570.5
2023-03-16T08:56:41.684Z,570.6
2023-03-16T08:57:43.363Z,570.4
2023-03-16T08:58:45.895Z,570.7
2023-03-16T08:59:48.453Z,570.6
2023-03-16T09:00:52.372Z,570.9
2023-03-16T09:01:55.054Z,571
2023-03-16T09:02:57.608Z,571.2
2023-03-16T09:04:00.077Z,571.2
2023-03-16T09:05:02.809Z,571
2023-03-16T09:06:05.337Z,571.1
2023-03-16T09:08:12.829Z,571
2023-03-16T09:09:15.080Z,571.5
2023-03-16T09:11:23.069Z,571.3
2023-03-16T09:12:24.999Z,571.6
2023-03-16T09:13:26.968Z,571.8
2023-03-16T09:14:29.590Z,571.6
2023-03-16T09:15:32.203Z,571.5
2023-03-16T09:16:35.055Z,572
2023-03-16T09:17:37.753Z,571.7
2023-03-16T09:18:39.780Z,572.3
2023-03-16T09:20:47.350Z,571.6
2023-03-16T09:21:49.899Z,571.2
2023-03-16T09:22:52.394Z,571.6
2023-03-16T09:23:55.231Z,571.4
2023-03-16T09:24:57.461Z,571.7
2023-03-16T09:25:59.431Z,571.4
2023-03-16T09:27:02.447Z,571.8
2023-03-16T09:28:05.044Z,571.4
2023-03-16T09:29:07.593Z,571.7
2023-03-16T09:30:10.119Z,571.8
2023-03-16T09:31:12.549Z,571.4
2023-03-16T09:32:15.632Z,571.5
2023-03-16T09:33:18.275Z,571.5
2023-03-16T09:34:20.524Z,571.4
2023-03-16T09:35:23.045Z,571.3
2023-03-16T09:36:25.363Z,571.6
2023-03-16T09:38:36.439Z,571.1
2023-03-16T09:39:39.025Z,570.9
2023-03-16T09:40:41.568Z,571.2
2023-03-16T09:41:44.077Z,571.3
2023-03-16T09:42:46.392Z,570.4
2023-03-16T09:43:48.606Z,571
2023-03-16T09:44:51.174Z,570.9
2023-03-16T09:45:53.940Z,571.4
2023-03-16T09:46:56.214Z,571.4
2023-03-16T09:47:58.735Z,571.2
2023-03-16T09:49:01.380Z,571.1
2023-03-16T09:50:03.939Z,571.4
2023-03-16T09:51:06.549Z,570.9
2023-03-16T09:52:09.203Z,571.1
2023-03-16T09:53:11.757Z,571.7
2023-03-16T09:54:14.052Z,571.6
2023-03-16T09:55:16.286Z,571.6
2023-03-16T09:56:18.850Z,571.3
2023-03-16T09:57:21.118Z,571.4
2023-03-16T09:58:23.630Z,571.2
2023-03-16T09:59:26.169Z,571.8
2023-03-16T10:00:30.141Z,572
2023-03-16T10:01:33.139Z,571.6
2023-03-16T10:02:35.822Z,572.1
2023-03-16T10:03:38.748Z,572.2
2023-03-16T10:04:41.406Z,572
2023-03-16T10:08:21.654Z,571.9
2023-03-16T10:12:02.629Z,572.1
2023-03-16T10:14:27.454Z,572.3
2023-03-16T10:15:29.967Z,572.7
2023-03-16T10:16:32.704Z,573.1
2023-03-16T10:17:34.966Z,572.9
2023-03-16T10:18:37.525Z,572.9
2023-03-16T10:19:40.047Z,572.7
2023-03-16T10:20:42.672Z,572.5
2023-03-16T10:21:45.284Z,572.9
2023-03-16T10:22:47.809Z,572.1
2023-03-16T10:23:50.434Z,572.6
2023-03-16T10:24:52.959Z,572.6
2023-03-16T10:25:55.245Z,572.9
2023-03-16T10:26:58.031Z,572.9
2023-03-16T10:28:00.296Z,573
2023-03-16T10:29:02.883Z,573.4
2023-03-16T10:30:05.416Z,573.2
2023-03-16T10:31:07.361Z,574.4
2023-03-16T10:32:09.801Z,573.8
2023-03-16T10:33:12.982Z,574.1
2023-03-16T10:34:15.254Z,574.9
2023-03-16T10:35:17.881Z,574.2
2023-03-16T10:36:20.605Z,574.8
2023-03-16T10:37:23.119Z,574.2
2023-03-16T10:38:25.660Z,574.8
2023-03-16T10:39:30.244Z,574.9
2023-03-16T10:40:33.304Z,575
2023-03-16T10:41:35.856Z,575.1
2023-03-16T10:42:38.376Z,574.7
2023-03-16T10:43:40.916Z,575.2
2023-03-16T10:44:42.862Z,575.4
2023-03-16T10:45:45.836Z,575.4
2023-03-16T10:46:49.228Z,575.6
2023-03-16T10:47:51.882Z,575.5
2023-03-16T10:48:54.170Z,576.1
2023-03-16T10:49:56.746Z,576
2023-03-16T10:50:59.338Z,575.9
2023-03-16T10:52:02.010Z,576.5
2023-03-16T10:53:04.568Z,575.9
2023-03-16T10:54:06.865Z,576.2
2023-03-16T10:55:09.379Z,576.3
2023-03-16T10:56:11.881Z,576
2023-03-16T10:57:14.399Z,576.4
2023-03-16T10:58:16.634Z,576.2
2023-03-16T10:59:18.562Z,576.1
2023-03-16T11:00:21.294Z,576.1
2023-03-16T11:01:24.036Z,576.5
2023-03-16T11:02:26.629Z,576.8
2023-03-16T11:03:28.915Z,576.9
2023-03-16T11:04:31.740Z,577.4
2023-03-16T11:05:33.792Z,577.1
2023-03-16T11:06:36.039Z,577.4
2023-03-16T11:07:38.418Z,577.3
2023-03-16T11:08:40.943Z,577.6
2023-03-16T11:09:43.221Z,577.9
2023-03-16T11:11:50.455Z,578
2023-03-16T11:12:52.996Z,578.3
2023-03-16T11:13:55.496Z,578.1
2023-03-16T11:14:58.026Z,577.9
2023-03-16T11:16:00.544Z,577.8
2023-03-16T11:17:03.150Z,578.1
2023-03-16T11:18:05.659Z,578.3
2023-03-16T11:19:07.915Z,578.5
2023-03-16T11:20:09.968Z,578.2
2023-03-16T11:21:12.528Z,579
2023-03-16T11:22:14.777Z,578.9
2023-03-16T11:23:17.395Z,579
2023-03-16T11:24:19.881Z,578.9
2023-03-16T11:25:22.382Z,579
2023-03-16T11:26:24.876Z,578.9
2023-03-16T11:27:27.422Z,578.9
2023-03-16T11:28:29.643Z,578.8
2023-03-16T11:29:31.876Z,579
2023-03-16T11:30:34.092Z,579.1
2023-03-16T11:31:36.126Z,579.3
2023-03-16T11:32:39.085Z,579.1
2023-03-16T11:33:41.607Z,579.1
2023-03-16T11:34:43.552Z,579.4
2023-03-16T11:36:50.797Z,579.9
2023-03-16T11:37:52.792Z,579.9
2023-03-16T11:38:58.303Z,580.3
2023-03-16T11:40:00.878Z,580
2023-03-16T11:41:03.392Z,580.1
2023-03-16T11:42:05.351Z,580.2
2023-03-16T11:43:07.654Z,580.3
2023-03-16T11:44:10.152Z,580.8
2023-03-16T11:45:12.667Z,581
2023-03-16T11:46:15.325Z,580.9
2023-03-16T11:47:17.684Z,581
2023-03-16T11:48:19.654Z,580.9
2023-03-16T11:49:21.924Z,580.8
2023-03-16T11:50:24.429Z,581.1
2023-03-16T11:51:26.363Z,581.4
2023-03-16T11:52:28.885Z,581.3
2023-03-16T11:53:31.114Z,582
2023-03-16T11:54:33.718Z,581.4
2023-03-16T11:55:36.227Z,581.7
2023-03-16T11:56:38.725Z,581.5
2023-03-16T11:57:40.985Z,581.4
2023-03-16T11:58:43.200Z,581.5
2023-03-16T12:00:50.403Z,582.2
2023-03-16T12:02:58.436Z,582.1
2023-03-16T12:04:01.281Z,582.5
2023-03-16T12:05:03.534Z,582.6
2023-03-16T12:07:10.793Z,582.9
2023-03-16T12:08:13.339Z,582.9
2023-03-16T12:09:15.846Z,582.8
2023-03-16T12:10:18.481Z,583.1
2023-03-16T12:11:21.006Z,583.1
2023-03-16T12:12:23.241Z,583.4
2023-03-16T12:13:25.731Z,583.9
2023-03-16T12:14:28.266Z,584.2
2023-03-16T12:15:32.868Z,584
2023-03-16T12:17:40.347Z,584.4
2023-03-16T12:18:42.594Z,584.8
2023-03-16T12:19:44.872Z,585
2023-03-16T12:20:47.367Z,585.2
2023-03-16T12:21:49.900Z,585.2
2023-03-16T12:22:52.141Z,584.8
2023-03-16T12:23:54.504Z,584.4
2023-03-16T12:24:57.054Z,584.5
2023-03-16T12:25:59.734Z,584.5
2023-03-16T12:27:02.277Z,585.2
2023-03-16T12:28:04.781Z,584.6
2023-03-16T12:29:07.305Z,584.9
2023-03-16T12:30:09.545Z,585.2
2023-03-16T12:31:12.390Z,585.3
2023-03-16T12:32:14.917Z,584.7
2023-03-16T12:33:17.418Z,583.9
2023-03-16T12:34:19.919Z,584.7
2023-03-16T12:35:22.487Z,584.8
2023-03-16T12:36:24.743Z,585.2
2023-03-16T12:37:27.293Z,584.8
2023-03-16T12:38:29.523Z,585.2
2023-03-16T12:39:32.058Z,585.5
2023-03-16T12:40:34.585Z,585.1
2023-03-16T12:41:37.259Z,585.4
2023-03-16T12:42:39.774Z,585.7
2023-03-16T12:43:42.546Z,585.8
2023-03-16T12:44:44.796Z,585.5
2023-03-16T12:45:47.028Z,585.7
2023-03-16T12:46:49.762Z,586.2
2023-03-16T12:47:51.684Z,586
2023-03-16T12:48:54.198Z,585.4
2023-03-16T12:49:56.458Z,585.7
2023-03-16T12:50:58.752Z,585.8
2023-03-16T12:52:00.990Z,586
2023-03-16T12:53:03.525Z,586.5
2023-03-16T12:54:05.735Z,586.1
2023-03-16T12:55:07.745Z,586.9
2023-03-16T12:56:10.013Z,586.9
2023-03-16T12:57:12.630Z,586.3
2023-03-16T12:58:15.146Z,586.5
2023-03-16T12:59:17.369Z,586.1
2023-03-16T13:00:19.645Z,586.4
2023-03-16T13:01:22.410Z,586.7
2023-03-16T13:02:24.926Z,586.6
2023-03-16T13:03:27.216Z,587.1
2023-03-16T13:04:29.746Z,587.2
2023-03-16T13:05:32.981Z,586.9
2023-03-16T13:07:40.510Z,587.6
2023-03-16T13:08:43.067Z,587
2023-03-16T13:09:45.557Z,587.4
2023-03-16T13:10:48.196Z,587.4
2023-03-16T13:11:50.742Z,587.5
2023-03-16T13:12:53.375Z,587.5
2023-03-16T13:13:55.883Z,587.9
2023-03-16T13:14:58.407Z,587.8
2023-03-16T13:16:00.913Z,587.4
2023-03-16T13:17:03.868Z,588.1
2023-03-16T13:18:06.195Z,587.9
2023-03-16T13:19:08.529Z,588.1
2023-03-16T13:21:15.733Z,587.9
2023-03-16T13:22:18.232Z,588.1
2023-03-16T13:23:20.785Z,587.6
2023-03-16T13:24:23.046Z,587.4
2023-03-16T13:25:25.622Z,587.7
2023-03-16T13:26:28.185Z,587.7
2023-03-16T13:27:30.497Z,588.5
2023-03-16T13:28:33.137Z,588.3
2023-03-16T13:30:43.295Z,589.3
2023-03-16T13:31:46.244Z,588.4
2023-03-16T13:32:49.057Z,588.6
2023-03-16T13:33:51.366Z,588.9
2023-03-16T13:34:53.901Z,588
2023-03-16T13:35:56.736Z,588.2
2023-03-16T13:36:58.441Z,588.4
2023-03-16T13:38:00.675Z,588.3
2023-03-16T13:39:02.889Z,588.1
2023-03-16T13:40:04.870Z,588.6
2023-03-16T13:41:07.367Z,587.4
2023-03-16T13:42:09.909Z,588.1
2023-03-16T13:43:12.116Z,588.2
2023-03-16T13:44:14.729Z,588.2
2023-03-16T13:45:17.353Z,588.3
2023-03-16T13:46:20.235Z,589.2
2023-03-16T13:47:22.798Z,589.9
2023-03-16T13:48:25.054Z,589.6
2023-03-16T13:49:27.315Z,589.9
2023-03-16T13:50:31.374Z,590.6
2023-03-16T13:51:34.019Z,590.1
2023-03-16T13:52:36.624Z,590.6
2023-03-16T13:53:39.119Z,590.3